Terminal Aerodrome Forecast
Issued by NWS Missoula, MT

Home | Current Version | Previous Version | Text Only | Print | Product List | Glossary On
Versions: 1 2 3 4 5 6 7 8 9 10 11 12 13 14 15
100
FTUS45 KMSO 240533
TAFMSO
TAF
KMSO 240533Z 2406/2506 VRB03KT P6SM SKC
     FM241100 00000KT P6SM VCFG SKC
     FM241300 00000KT 6SM BR VCFG SKC
     FM241700 VRB04KT P6SM SKC=

USA.gov is the U.S. government's official web portal to all federal, state and local government web resources and services.